createdAt,value
2022-08-26T00:00:18.479Z,96.008301
2022-08-26T00:01:29.231Z,96.313477
2022-08-26T00:02:36.930Z,96.411133
2022-08-26T00:03:46.616Z,96.453857
2022-08-26T00:04:55.311Z,96.557617
2022-08-26T00:06:04.029Z,96.655273
2022-08-26T00:07:13.778Z,96.759033
2022-08-26T00:08:23.457Z,96.856689
2022-08-26T00:09:31.143Z,96.960449
2022-08-26T00:10:41.866Z,96.856689
2022-08-26T00:11:51.571Z,97.058105
2022-08-26T00:13:01.331Z,97.106934
2022-08-26T00:14:09.961Z,97.30835
2022-08-26T00:15:18.615Z,97.503662
2022-08-26T00:16:29.389Z,97.607422
2022-08-26T00:17:37.918Z,97.808838
2022-08-26T00:18:45.588Z,97.906494
2022-08-26T00:19:55.241Z,97.906494
2022-08-26T00:21:06.068Z,97.906494
2022-08-26T00:22:12.687Z,98.010254
2022-08-26T00:23:24.162Z,98.010254
2022-08-26T00:24:32.977Z,98.010254
2022-08-26T00:25:42.727Z,97.906494
2022-08-26T00:26:53.273Z,97.906494
2022-08-26T00:28:01.929Z,97.808838
2022-08-26T00:29:12.573Z,97.808838
2022-08-26T00:30:21.386Z,97.808838
2022-08-26T00:31:31.903Z,97.808838
2022-08-26T00:32:44.053Z,97.705078
2022-08-26T00:33:52.134Z,97.705078
2022-08-26T00:35:01.806Z,97.607422
2022-08-26T00:36:11.350Z,97.503662
2022-08-26T00:37:19.316Z,97.406006
2022-08-26T00:38:29.962Z,97.20459
2022-08-26T00:39:38.615Z,97.106934
2022-08-26T00:40:48.279Z,97.20459
2022-08-26T00:41:56.943Z,97.30835
2022-08-26T00:43:07.192Z,97.20459
2022-08-26T00:44:16.241Z,97.20459
2022-08-26T00:45:23.936Z,97.20459
2022-08-26T00:46:32.586Z,97.003174
2022-08-26T00:47:42.293Z,97.003174
2022-08-26T00:48:50.977Z,97.20459
2022-08-26T00:49:59.665Z,97.20459
2022-08-26T00:51:09.336Z,97.30835
2022-08-26T00:52:17.981Z,97.406006
2022-08-26T00:53:27.908Z,97.503662
2022-08-26T00:54:35.335Z,97.503662
2022-08-26T00:55:44.984Z,97.406006
2022-08-26T00:56:54.628Z,97.406006
2022-08-26T00:58:04.287Z,97.406006
2022-08-26T00:59:12.985Z,97.30835
2022-08-26T01:00:22.656Z,97.406006
2022-08-26T01:01:32.324Z,97.406006
2022-08-26T01:02:46.647Z,97.20459
2022-08-26T01:03:52.613Z,97.30835
2022-08-26T01:05:00.303Z,97.30835
2022-08-26T01:06:12.665Z,97.30835
2022-08-26T01:07:20.616Z,97.30835
2022-08-26T01:08:29.251Z,97.20459
2022-08-26T01:09:37.917Z,97.406006
2022-08-26T01:10:46.588Z,97.406006
2022-08-26T01:11:56.234Z,97.30835
2022-08-26T01:13:04.950Z,97.106934
2022-08-26T01:14:14.633Z,97.20459
2022-08-26T01:15:25.298Z,97.406006
2022-08-26T01:16:36.101Z,97.607422
2022-08-26T01:17:46.736Z,97.607422
2022-08-26T01:18:57.410Z,97.503662
2022-08-26T01:20:08.116Z,97.406006
2022-08-26T01:21:18.789Z,97.406006
2022-08-26T01:22:29.480Z,97.406006
2022-08-26T01:23:37.159Z,97.406006
2022-08-26T01:24:47.807Z,97.503662
2022-08-26T01:25:56.456Z,97.503662
2022-08-26T01:27:05.146Z,97.503662
2022-08-26T01:28:13.821Z,97.55249
2022-08-26T01:29:22.461Z,97.65625
2022-08-26T01:30:32.161Z,97.753906
2022-08-26T01:31:40.877Z,97.851562
2022-08-26T01:32:48.502Z,97.851562
2022-08-26T01:33:58.210Z,97.955322
2022-08-26T01:35:07.886Z,97.851562
2022-08-26T01:36:16.596Z,97.753906
2022-08-26T01:37:26.325Z,97.753906
2022-08-26T01:38:36.012Z,97.753906
2022-08-26T01:39:44.886Z,97.753906
2022-08-26T01:40:54.459Z,97.753906
2022-08-26T01:42:04.077Z,97.753906
2022-08-26T01:43:14.799Z,97.753906
2022-08-26T01:44:23.457Z,97.753906
2022-08-26T01:45:33.287Z,97.851562
2022-08-26T01:46:42.946Z,97.851562
2022-08-26T01:47:56.963Z,97.851562
2022-08-26T01:49:02.350Z,97.851562
2022-08-26T01:50:12.037Z,97.851562
2022-08-26T01:51:22.835Z,97.753906
2022-08-26T01:52:31.517Z,97.753906
2022-08-26T01:53:41.679Z,97.65625
2022-08-26T01:54:51.104Z,97.503662
2022-08-26T01:55:59.642Z,97.607422
2022-08-26T01:57:09.388Z,97.607422
2022-08-26T01:58:19.069Z,97.503662
2022-08-26T01:59:27.779Z,97.503662
2022-08-26T02:00:37.509Z,97.406006
2022-08-26T02:01:45.112Z,97.454834
2022-08-26T02:02:53.820Z,97.454834
2022-08-26T02:04:03.501Z,97.55249
2022-08-26T02:05:13.194Z,97.65625
2022-08-26T02:06:22.896Z,97.65625
2022-08-26T02:07:31.592Z,97.65625
2022-08-26T02:08:41.301Z,97.753906
2022-08-26T02:09:50.970Z,97.753906
2022-08-26T02:10:59.655Z,97.753906
2022-08-26T02:12:09.354Z,97.753906
2022-08-26T02:13:19.055Z,97.753906
2022-08-26T02:14:28.726Z,97.753906
2022-08-26T02:15:36.383Z,97.851562
2022-08-26T02:16:45.119Z,97.851562
2022-08-26T02:17:54.695Z,97.753906
2022-08-26T02:19:04.372Z,97.753906
2022-08-26T02:20:15.078Z,97.753906
2022-08-26T02:21:24.979Z,97.851562
2022-08-26T02:22:33.346Z,97.851562
2022-08-26T02:23:42.015Z,97.955322
2022-08-26T02:24:51.670Z,97.955322
2022-08-26T02:26:00.345Z,97.955322
2022-08-26T02:27:09.016Z,97.955322
2022-08-26T02:28:19.746Z,98.199463
2022-08-26T02:29:29.335Z,98.504639
2022-08-26T02:30:38.975Z,98.706055
2022-08-26T02:31:48.767Z,98.950195
2022-08-26T02:32:58.321Z,99.151611
2022-08-26T02:34:06.990Z,99.353027
2022-08-26T02:35:18.151Z,99.353027
2022-08-26T02:36:28.515Z,99.353027
2022-08-26T02:37:34.954Z,99.353027
2022-08-26T02:38:44.589Z,99.353027
2022-08-26T02:39:53.239Z,99.353027
2022-08-26T02:41:02.875Z,99.456787
2022-08-26T02:42:12.529Z,99.554443
2022-08-26T02:43:23.902Z,99.554443
2022-08-26T02:44:32.954Z,99.456787
2022-08-26T02:45:42.610Z,99.353027
2022-08-26T02:46:51.294Z,99.255371
2022-08-26T02:48:00.931Z,99.151611
2022-08-26T02:49:08.611Z,99.053955
2022-08-26T02:50:19.297Z,99.053955
2022-08-26T02:51:27.953Z,99.053955
2022-08-26T02:52:38.596Z,98.907471
2022-08-26T02:53:47.274Z,98.852539
2022-08-26T02:54:56.048Z,98.748779
2022-08-26T02:56:05.717Z,98.852539
2022-08-26T02:57:14.370Z,98.950195
2022-08-26T02:58:23.020Z,99.053955
2022-08-26T02:59:32.678Z,99.304199
2022-08-26T03:00:53.206Z,99.401855
2022-08-26T03:01:53.001Z,99.554443
2022-08-26T03:03:02.611Z,99.603271
2022-08-26T03:04:12.290Z,99.554443
2022-08-26T03:05:21.936Z,99.353027
2022-08-26T03:06:31.626Z,99.200439
2022-08-26T03:07:41.284Z,99.200439
2022-08-26T03:08:50.953Z,99.304199
2022-08-26T03:10:00.641Z,99.505615
2022-08-26T03:11:11.328Z,99.749756
2022-08-26T03:12:21.013Z,99.853516
2022-08-26T03:13:29.672Z,99.951172
2022-08-26T03:14:39.335Z,99.993896
2022-08-26T03:15:47.613Z,99.993896
2022-08-26T03:16:55.677Z,99.993896
2022-08-26T03:18:04.456Z,99.993896
2022-08-26T03:19:13.115Z,99.993896
2022-08-26T03:20:21.780Z,99.993896
2022-08-26T03:21:31.471Z,99.993896
2022-08-26T03:22:41.138Z,99.993896
2022-08-26T03:23:50.833Z,99.993896
2022-08-26T03:24:59.491Z,99.993896
2022-08-26T03:26:07.132Z,99.993896
2022-08-26T03:27:16.789Z,99.993896
2022-08-26T03:28:27.107Z,99.993896
2022-08-26T03:29:34.122Z,99.993896
2022-08-26T03:30:45.152Z,99.993896
2022-08-26T03:31:53.435Z,99.993896
2022-08-26T03:33:03.071Z,99.993896
2022-08-26T03:34:11.273Z,99.993896
2022-08-26T03:35:20.453Z,99.993896
2022-08-26T03:36:30.096Z,99.853516
2022-08-26T03:37:38.747Z,99.853516
2022-08-26T03:38:48.405Z,99.951172
2022-08-26T03:39:57.068Z,99.853516
2022-08-26T03:41:06.781Z,99.853516
2022-08-26T03:42:16.430Z,99.951172
2022-08-26T03:43:25.071Z,99.951172
2022-08-26T03:44:34.726Z,99.902344
2022-08-26T03:45:43.378Z,99.798584
2022-08-26T03:46:52.172Z,99.853516
2022-08-26T03:48:01.856Z,99.902344
2022-08-26T03:49:11.529Z,99.902344
2022-08-26T03:50:22.564Z,99.902344
2022-08-26T03:51:30.854Z,99.902344
2022-08-26T03:52:43.797Z,99.993896
2022-08-26T03:53:51.163Z,99.902344
2022-08-26T03:54:58.823Z,99.798584
2022-08-26T03:56:07.496Z,99.597168
2022-08-26T03:57:17.152Z,99.597168
2022-08-26T03:58:26.878Z,99.597168
2022-08-26T03:59:35.546Z,99.700928
2022-08-26T04:00:46.252Z,99.798584
2022-08-26T04:01:54.955Z,99.993896
2022-08-26T04:03:04.684Z,99.993896
2022-08-26T04:04:15.420Z,99.993896
2022-08-26T04:05:23.868Z,99.902344
2022-08-26T04:06:33.530Z,99.798584
2022-08-26T04:07:42.167Z,99.798584
2022-08-26T04:08:51.850Z,99.945068
2022-08-26T04:10:00.508Z,99.993896
2022-08-26T04:11:09.221Z,99.993896
2022-08-26T04:12:18.877Z,99.993896
2022-08-26T04:13:27.545Z,99.993896
2022-08-26T04:14:35.212Z,99.993896
2022-08-26T04:15:44.989Z,99.993896
2022-08-26T04:16:55.228Z,99.993896
2022-08-26T04:18:03.433Z,99.993896
2022-08-26T04:19:13.157Z,99.993896
2022-08-26T04:20:21.867Z,99.993896
2022-08-26T04:21:31.597Z,99.993896
2022-08-26T04:22:41.388Z,99.993896
2022-08-26T04:23:50.083Z,99.993896
2022-08-26T04:24:59.858Z,99.993896
2022-08-26T04:26:09.542Z,99.993896
2022-08-26T04:27:19.322Z,99.993896
2022-08-26T04:28:29.990Z,99.993896
2022-08-26T04:29:38.723Z,99.993896
2022-08-26T04:30:48.435Z,99.993896
2022-08-26T04:31:57.112Z,99.993896
2022-08-26T04:33:12.836Z,99.993896
2022-08-26T04:34:16.549Z,99.993896
2022-08-26T04:35:26.350Z,99.993896
2022-08-26T04:36:35.883Z,99.993896
2022-08-26T04:37:46.562Z,99.993896
2022-08-26T04:38:56.276Z,99.993896
2022-08-26T04:40:06.004Z,99.993896
2022-08-26T04:41:15.127Z,99.993896
2022-08-26T04:42:25.979Z,99.993896
2022-08-26T04:43:33.978Z,99.993896
2022-08-26T04:44:43.668Z,99.993896
2022-08-26T04:45:53.365Z,99.993896
2022-08-26T04:47:03.134Z,99.993896
2022-08-26T04:48:12.824Z,99.993896
2022-08-26T04:49:23.496Z,99.993896
2022-08-26T04:50:32.351Z,99.993896
2022-08-26T04:51:40.063Z,99.993896
2022-08-26T04:52:49.783Z,99.993896
2022-08-26T04:53:58.477Z,99.993896
2022-08-26T04:55:09.142Z,99.993896
2022-08-26T04:56:18.844Z,99.993896
2022-08-26T04:57:28.539Z,99.993896
2022-08-26T04:58:38.256Z,99.993896
2022-08-26T04:59:47.957Z,99.993896
2022-08-26T05:00:55.650Z,99.993896
2022-08-26T05:02:05.558Z,99.951172
2022-08-26T05:03:15.212Z,99.6521
2022-08-26T05:04:24.938Z,99.505615
2022-08-26T05:05:33.616Z,99.304199
2022-08-26T05:06:43.297Z,98.999023
2022-08-26T05:07:53.031Z,98.797607
2022-08-26T05:08:59.692Z,98.596191
2022-08-26T05:10:09.383Z,98.498535
2022-08-26T05:11:20.076Z,98.394775
2022-08-26T05:12:29.809Z,98.150635
2022-08-26T05:13:38.499Z,98.046875
2022-08-26T05:14:47.213Z,97.845459
2022-08-26T05:15:58.142Z,97.644043
2022-08-26T05:17:07.556Z,97.546387
2022-08-26T05:18:18.199Z,97.344971
2022-08-26T05:19:27.760Z,96.942139
2022-08-26T05:20:37.525Z,96.44165
2022-08-26T05:21:47.293Z,96.484375
2022-08-26T05:22:55.840Z,96.887207
2022-08-26T05:24:04.511Z,97.290039
2022-08-26T05:25:13.191Z,97.186279
2022-08-26T05:26:23.285Z,97.088623
2022-08-26T05:27:32.519Z,97.387695
2022-08-26T05:28:40.184Z,97.589111
2022-08-26T05:29:54.410Z,97.442627
2022-08-26T05:30:59.541Z,96.838379
2022-08-26T05:32:08.180Z,96.240234
2022-08-26T05:33:17.825Z,96.282959
2022-08-26T05:34:30.229Z,96.484375
2022-08-26T05:35:37.130Z,96.588135
2022-08-26T05:36:45.841Z,96.783447
2022-08-26T05:37:55.502Z,96.984863
2022-08-26T05:39:04.160Z,97.186279
2022-08-26T05:40:12.841Z,96.588135
2022-08-26T05:41:23.483Z,96.386719
2022-08-26T05:42:32.166Z,96.630859
2022-08-26T05:43:41.891Z,96.929932
2022-08-26T05:44:54.166Z,97.131348
2022-08-26T05:46:01.191Z,97.235107
2022-08-26T05:47:10.866Z,97.235107
2022-08-26T05:48:22.592Z,97.332764
2022-08-26T05:49:28.218Z,97.332764
2022-08-26T05:50:37.873Z,97.186279
2022-08-26T05:51:46.596Z,96.984863
2022-08-26T05:52:55.185Z,96.685791
2022-08-26T05:54:04.957Z,96.685791
2022-08-26T05:55:14.625Z,96.685791
2022-08-26T05:56:24.294Z,96.783447
2022-08-26T05:57:31.957Z,96.636963
2022-08-26T05:58:41.611Z,96.539307
2022-08-26T05:59:51.327Z,96.392822
2022-08-26T06:00:59.976Z,96.09375
2022-08-26T06:02:08.649Z,95.385742
2022-08-26T06:03:18.363Z,94.940186
2022-08-26T06:04:29.017Z,94.134521
2022-08-26T06:05:38.398Z,93.933105
2022-08-26T06:06:47.307Z,93.994141
2022-08-26T06:07:55.976Z,93.688965
2022-08-26T06:09:05.641Z,92.340088
2022-08-26T06:10:31.393Z,92.138672
2022-08-26T06:11:24.977Z,91.339111
2022-08-26T06:12:33.633Z,90.893555
2022-08-26T06:13:43.349Z,90.893555
2022-08-26T06:14:53.032Z,90.289307
2022-08-26T06:16:00.732Z,90.045166
2022-08-26T06:17:08.362Z,89.746094
2022-08-26T06:18:18.039Z,89.849854
2022-08-26T06:19:32.839Z,90.350342
2022-08-26T06:20:37.332Z,89.849854
2022-08-26T06:21:46.982Z,90.203857
2022-08-26T06:22:56.652Z,89.904785
2022-08-26T06:24:06.330Z,89.459229
2022-08-26T06:25:14.995Z,89.459229
2022-08-26T06:26:22.667Z,89.361572
2022-08-26T06:27:32.680Z,89.160156
2022-08-26T06:28:43.537Z,89.019775
2022-08-26T06:29:50.658Z,88.818359
2022-08-26T06:31:00.366Z,88.519287
2022-08-26T06:32:09.005Z,88.7146
2022-08-26T06:33:18.674Z,88.677979
2022-08-26T06:34:26.574Z,88.275146
2022-08-26T06:35:34.022Z,87.93335
2022-08-26T06:36:43.916Z,87.731934
2022-08-26T06:37:52.369Z,86.993408
2022-08-26T06:39:01.048Z,86.590576
2022-08-26T06:40:08.837Z,84.851074
2022-08-26T06:41:18.413Z,84.94873
2022-08-26T06:42:28.067Z,84.649658
2022-08-26T06:43:35.709Z,85.05249
2022-08-26T06:44:45.448Z,84.350586
2022-08-26T06:45:55.183Z,84.912109
2022-08-26T06:47:04.821Z,84.710693
2022-08-26T06:48:14.491Z,84.27124
2022-08-26T06:49:25.918Z,83.47168
2022-08-26T06:50:32.822Z,83.673096
2022-08-26T06:51:42.504Z,83.630371
2022-08-26T06:52:50.168Z,83.428955
2022-08-26T06:53:59.819Z,83.093262
2022-08-26T06:55:09.489Z,83.190918
2022-08-26T06:56:18.163Z,82.452393
2022-08-26T06:57:25.949Z,81.817627
2022-08-26T06:58:35.596Z,80.682373
2022-08-26T06:59:44.260Z,80.047607
2022-08-26T07:00:56.164Z,79.907227
2022-08-26T07:02:05.598Z,78.912354
2022-08-26T07:03:15.339Z,78.778076
2022-08-26T07:04:24.933Z,78.240967
2022-08-26T07:05:34.578Z,77.008057
2022-08-26T07:06:43.277Z,76.678467
2022-08-26T07:07:52.940Z,75.744629
2022-08-26T07:09:03.349Z,75.610352
2022-08-26T07:10:13.534Z,74.32251
2022-08-26T07:11:22.218Z,73.529053
2022-08-26T07:12:31.907Z,73.132324
2022-08-26T07:13:41.595Z,74.32251
2022-08-26T07:14:51.333Z,73.529053
2022-08-26T07:16:03.013Z,73.364258
2022-08-26T07:17:13.893Z,73.99292
2022-08-26T07:18:20.383Z,74.42627
2022-08-26T07:19:31.705Z,75.518799
2022-08-26T07:20:39.877Z,75.024414
2022-08-26T07:21:48.519Z,75.518799
2022-08-26T07:22:59.174Z,73.632812
2022-08-26T07:24:08.914Z,73.99292
2022-08-26T07:25:19.226Z,73.101807
2022-08-26T07:26:28.539Z,73.162842
2022-08-26T07:27:36.993Z,72.436523
2022-08-26T07:28:46.738Z,73.724365
2022-08-26T07:29:54.458Z,71.343994
2022-08-26T07:31:03.195Z,71.539307
2022-08-26T07:32:13.878Z,72.137451
2022-08-26T07:33:23.527Z,72.003174
2022-08-26T07:34:32.230Z,71.508789
2022-08-26T07:35:41.963Z,71.209717
2022-08-26T07:36:49.606Z,71.643066
2022-08-26T07:37:58.307Z,72.369385
2022-08-26T07:39:07.036Z,72.766113
2022-08-26T07:40:16.727Z,72.668457
2022-08-26T07:41:25.428Z,72.668457
2022-08-26T07:42:33.015Z,72.53418
2022-08-26T07:43:42.714Z,72.631836
2022-08-26T07:44:51.400Z,72.53418
2022-08-26T07:46:00.070Z,73.132324
2022-08-26T07:47:10.041Z,73.22998
2022-08-26T07:48:18.373Z,73.626709
2022-08-26T07:49:28.179Z,72.20459
2022-08-26T07:50:49.609Z,71.44165
2022-08-26T07:51:46.346Z,72.833252
2022-08-26T07:52:56.080Z,72.332764
2022-08-26T07:54:05.785Z,72.436523
2022-08-26T07:55:15.495Z,73.22998
2022-08-26T07:56:24.173Z,73.529053
2022-08-26T07:57:32.835Z,72.53418
2022-08-26T07:58:44.970Z,72.436523
2022-08-26T07:59:54.941Z,71.478271
2022-08-26T08:01:04.113Z,71.972656
2022-08-26T08:02:13.841Z,73.55957
2022-08-26T08:03:22.543Z,72.668457
2022-08-26T08:04:32.335Z,73.858643
2022-08-26T08:05:42.109Z,72.967529
2022-08-26T08:06:51.877Z,73.065186
2022-08-26T08:08:26.444Z,73.266602
2022-08-26T08:09:12.316Z,72.271729
2022-08-26T08:10:21.099Z,72.601318
2022-08-26T08:11:31.741Z,73.034668
2022-08-26T08:12:41.747Z,73.76709
2022-08-26T08:13:52.411Z,74.859619
2022-08-26T08:15:01.268Z,74.560547
2022-08-26T08:16:12.408Z,74.627686
2022-08-26T08:17:19.691Z,74.127197
2022-08-26T08:18:28.897Z,75.219727
2022-08-26T08:19:39.142Z,74.926758
2022-08-26T08:20:54.611Z,74.688721
2022-08-26T08:21:58.146Z,74.591064
2022-08-26T08:23:07.854Z,74.389648
2022-08-26T08:24:16.592Z,73.797607
2022-08-26T08:25:25.285Z,73.596191
2022-08-26T08:26:34.993Z,72.668457
2022-08-26T08:27:42.722Z,72.601318
2022-08-26T08:28:51.454Z,72.601318
2022-08-26T08:30:01.244Z,72.601318
2022-08-26T08:31:10.991Z,72.802734
2022-08-26T08:32:19.659Z,72.998047
2022-08-26T08:33:28.350Z,72.009277
2022-08-26T08:34:37.102Z,72.30835
2022-08-26T08:35:47.880Z,72.601318
2022-08-26T08:36:57.609Z,72.369385
2022-08-26T08:38:07.461Z,71.575928
2022-08-26T08:39:17.014Z,72.369385
2022-08-26T08:40:26.825Z,71.478271
2022-08-26T08:41:35.472Z,71.673584
2022-08-26T08:42:44.241Z,71.179199
2022-08-26T08:43:53.932Z,71.777344
2022-08-26T08:45:03.675Z,71.276855
2022-08-26T08:46:12.517Z,71.246338
2022-08-26T08:47:21.327Z,70.648193
2022-08-26T08:48:31.003Z,70.349121
2022-08-26T08:49:40.701Z,70.349121
2022-08-26T08:50:50.509Z,72.174072
2022-08-26T08:51:59.268Z,70.483398
2022-08-26T08:53:09.187Z,70.916748
2022-08-26T08:54:19.678Z,71.343994
2022-08-26T08:55:28.420Z,72.735596
2022-08-26T08:56:39.213Z,71.478271
2022-08-26T08:57:49.929Z,72.277832
2022-08-26T08:58:59.708Z,72.808838
2022-08-26T09:00:07.441Z,72.906494
2022-08-26T09:01:15.251Z,73.303223
2022-08-26T09:02:25.057Z,73.303223
2022-08-26T09:03:34.666Z,73.565674
2022-08-26T09:04:43.343Z,73.730469
2022-08-26T09:05:52.053Z,72.442627
2022-08-26T09:07:01.737Z,72.705078
2022-08-26T09:08:11.215Z,73.297119
2022-08-26T09:09:19.035Z,71.313477
2022-08-26T09:10:27.801Z,71.478271
2022-08-26T09:11:37.562Z,71.575928
2022-08-26T09:12:47.286Z,71.374512
2022-08-26T09:13:55.000Z,72.668457
2022-08-26T09:15:03.666Z,70.288086
2022-08-26T09:16:13.464Z,70.08667
2022-08-26T09:17:23.077Z,70.251465
2022-08-26T09:18:31.792Z,70.153809
2022-08-26T09:19:41.479Z,69.952393
2022-08-26T09:20:50.247Z,70.153809
2022-08-26T09:22:00.040Z,69.458008
2022-08-26T09:23:10.778Z,69.75708
2022-08-26T09:24:22.277Z,70.452881
2022-08-26T09:25:32.100Z,71.112061
2022-08-26T09:26:40.795Z,70.318604
2022-08-26T09:27:50.746Z,70.617676
2022-08-26T09:28:59.226Z,70.117188
2022-08-26T09:30:07.953Z,71.374512
2022-08-26T09:31:17.720Z,69.885254
2022-08-26T09:32:24.525Z,70.379639
2022-08-26T09:33:34.247Z,70.776367
2022-08-26T09:34:42.985Z,69.98291
2022-08-26T09:35:52.700Z,69.787598
2022-08-26T09:37:04.610Z,69.293213
2022-08-26T09:38:12.063Z,70.251465
2022-08-26T09:39:20.910Z,69.854736
2022-08-26T09:40:29.677Z,69.915771
2022-08-26T09:41:39.534Z,69.818115
2022-08-26T09:42:49.174Z,69.787598
2022-08-26T09:43:56.822Z,68.005371
2022-08-26T09:45:04.508Z,67.211914
2022-08-26T09:46:15.297Z,67.907715
2022-08-26T09:47:24.880Z,67.907715
2022-08-26T09:48:36.268Z,68.597412
2022-08-26T09:49:45.212Z,68.499756
2022-08-26T09:50:54.937Z,68.896484
2022-08-26T09:52:04.611Z,69.189453
2022-08-26T09:53:14.275Z,69.885254
2022-08-26T09:54:24.949Z,68.695068
2022-08-26T09:55:35.587Z,69.555664
2022-08-26T09:56:44.319Z,69.354248
2022-08-26T09:57:54.054Z,67.96875
2022-08-26T09:59:06.488Z,66.97998
2022-08-26T10:00:14.341Z,67.675781
2022-08-26T10:01:24.078Z,69.122314
2022-08-26T10:02:33.731Z,67.840576
2022-08-26T10:03:41.451Z,68.566895
2022-08-26T10:04:52.104Z,67.645264
2022-08-26T10:06:01.831Z,67.114258
2022-08-26T10:07:10.505Z,66.326904
2022-08-26T10:08:20.197Z,65.734863
2022-08-26T10:09:28.859Z,66.723633
2022-08-26T10:10:38.518Z,66.723633
2022-08-26T10:11:49.155Z,66.790771
2022-08-26T10:12:56.858Z,66.491699
2022-08-26T10:14:05.549Z,66.888428
2022-08-26T10:15:14.188Z,66.790771
2022-08-26T10:16:22.904Z,67.181396
2022-08-26T10:17:33.517Z,65.997314
2022-08-26T10:18:43.227Z,66.491699
2022-08-26T10:19:56.337Z,66.094971
2022-08-26T10:21:03.644Z,65.50293
2022-08-26T10:22:11.309Z,66.296387
2022-08-26T10:23:20.979Z,66.265869
2022-08-26T10:24:30.634Z,64.978027
2022-08-26T10:25:38.340Z,66.162109
2022-08-26T10:26:46.993Z,65.673828
2022-08-26T10:27:56.626Z,65.966797
2022-08-26T10:29:06.317Z,63.769531
2022-08-26T10:30:15.040Z,65.014648
2022-08-26T10:31:27.649Z,65.478516
2022-08-26T10:32:34.329Z,65.350342
2022-08-26T10:33:43.987Z,63.024902
2022-08-26T10:34:53.659Z,61.61499
2022-08-26T10:36:03.345Z,61.810303
2022-08-26T10:37:15.104Z,61.38916
2022-08-26T10:38:22.656Z,61.779785
2022-08-26T10:39:31.307Z,60.699463
2022-08-26T10:40:39.043Z,61.065674
2022-08-26T10:41:48.777Z,61.16333
2022-08-26T10:42:57.505Z,57.531738
2022-08-26T10:44:08.160Z,60.675049
2022-08-26T10:45:17.824Z,59.857178
2022-08-26T10:46:27.626Z,57.476807
2022-08-26T10:47:37.184Z,57.965088
2022-08-26T10:48:44.892Z,57.348633
2022-08-26T10:49:55.562Z,58.721924
2022-08-26T10:51:04.305Z,57.421875
2022-08-26T10:52:15.205Z,57.556152
2022-08-26T10:53:25.050Z,57.824707
2022-08-26T10:54:34.399Z,57.043457
2022-08-26T10:55:43.062Z,57.208252
2022-08-26T10:56:52.731Z,55.938721
2022-08-26T10:58:07.266Z,55.322266
2022-08-26T10:59:13.076Z,54.418945
2022-08-26T11:00:22.718Z,54.833984
2022-08-26T11:01:32.397Z,55.157471
2022-08-26T11:02:47.028Z,55.810547
2022-08-26T11:03:52.762Z,55.322266
2022-08-26T11:05:03.320Z,52.856445
2022-08-26T11:06:14.154Z,54.516602
2022-08-26T11:07:22.828Z,54.907227
2022-08-26T11:08:32.503Z,54.80957
2022-08-26T11:09:42.192Z,54.150391
2022-08-26T11:10:50.841Z,54.833984
2022-08-26T11:12:05.209Z,55.743408
2022-08-26T11:13:12.174Z,57.141113
2022-08-26T11:14:28.352Z,59.094238
2022-08-26T11:15:32.683Z,57.263184
2022-08-26T11:16:43.006Z,58.007812
2022-08-26T11:17:51.039Z,58.691406
2022-08-26T11:19:00.803Z,59.210205
2022-08-26T11:20:13.138Z,59.307861
2022-08-26T11:21:20.175Z,59.606934
2022-08-26T11:22:30.871Z,59.04541
2022-08-26T11:23:40.337Z,59.075928
2022-08-26T11:24:49.419Z,59.466553
2022-08-26T11:25:58.158Z,59.173584
2022-08-26T11:27:06.837Z,58.483887
2022-08-26T11:28:16.574Z,58.551025
2022-08-26T11:29:26.321Z,59.606934
2022-08-26T11:30:36.049Z,58.331299
2022-08-26T11:31:45.805Z,57.8125
2022-08-26T11:32:54.529Z,57.220459
2022-08-26T11:34:04.285Z,57.617188
2022-08-26T11:35:15.001Z,56.903076
2022-08-26T11:36:24.694Z,56.970215
2022-08-26T11:37:33.395Z,56.311035
2022-08-26T11:38:43.168Z,55.950928
2022-08-26T11:39:55.288Z,56.958008
2022-08-26T11:41:04.253Z,56.732178
2022-08-26T11:42:12.995Z,55.853271
2022-08-26T11:43:22.723Z,54.772949
2022-08-26T11:44:31.527Z,55.389404
2022-08-26T11:45:41.349Z,56.072998
2022-08-26T11:46:51.039Z,55.194092
2022-08-26T11:47:58.733Z,56.072998
2022-08-26T11:49:08.610Z,55.560303
2022-08-26T11:50:17.258Z,54.35791
2022-08-26T11:51:26.009Z,55.505371
2022-08-26T11:52:35.853Z,54.595947
2022-08-26T11:53:44.564Z,53.198242
2022-08-26T11:54:54.312Z,53.466797
2022-08-26T11:56:04.015Z,53.588867
2022-08-26T11:57:12.756Z,51.5625
2022-08-26T11:58:22.501Z,52.764893
2022-08-26T11:59:39.480Z,53.106689
2022-08-26T12:00:43.006Z,53.22876
2022-08-26T12:01:51.632Z,54.266357
2022-08-26T12:03:01.359Z,55.34668
2022-08-26T12:04:11.462Z,55.834961
2022-08-26T12:05:21.357Z,55.34668
2022-08-26T12:06:31.054Z,55.609131
2022-08-26T12:07:42.515Z,54.901123
2022-08-26T12:08:51.589Z,55.13916
2022-08-26T12:10:02.167Z,53.717041
2022-08-26T12:11:11.270Z,53.369141
2022-08-26T12:12:20.998Z,52.075195
2022-08-26T12:13:30.720Z,50.024414
2022-08-26T12:14:39.645Z,50.610352
2022-08-26T12:15:49.255Z,51.098633
2022-08-26T12:16:59.961Z,51.611328
2022-08-26T12:18:08.779Z,52.099609
2022-08-26T12:19:17.381Z,51.611328
2022-08-26T12:20:28.095Z,51.806641
2022-08-26T12:21:37.846Z,53.24707
2022-08-26T12:22:48.059Z,52.050781
2022-08-26T12:23:57.301Z,52.410889
2022-08-26T12:25:06.007Z,50.238037
2022-08-26T12:26:15.841Z,50.628662
2022-08-26T12:27:25.573Z,51.531982
2022-08-26T12:28:34.282Z,50.238037
2022-08-26T12:29:42.994Z,50.750732
2022-08-26T12:30:53.700Z,51.312256
2022-08-26T12:32:04.506Z,50.213623
2022-08-26T12:33:19.364Z,50.408936
2022-08-26T12:34:21.947Z,49.34082
2022-08-26T12:35:31.692Z,50.115967
2022-08-26T12:36:40.413Z,49.633789
2022-08-26T12:37:49.099Z,48.730469
2022-08-26T12:38:58.930Z,49.243164
2022-08-26T12:40:08.745Z,48.876953
2022-08-26T12:41:18.504Z,49.267578
2022-08-26T12:42:27.294Z,49.291992
2022-08-26T12:43:35.100Z,49.780273
2022-08-26T12:44:53.548Z,49.87793
2022-08-26T12:45:54.596Z,51.074219
2022-08-26T12:47:03.361Z,52.34375
2022-08-26T12:48:12.040Z,50.848389
2022-08-26T12:49:21.740Z,51.434326
2022-08-26T12:50:31.513Z,50.78125
2022-08-26T12:51:40.217Z,51.5625
2022-08-26T12:52:48.884Z,51.025391
2022-08-26T12:53:58.574Z,54.833984
2022-08-26T12:55:07.276Z,51.513672
2022-08-26T12:56:17.191Z,51.611328
2022-08-26T12:57:25.890Z,50.927734
2022-08-26T12:58:35.594Z,50.341797
2022-08-26T12:59:45.312Z,51.000977
2022-08-26T13:00:53.130Z,50.317383
2022-08-26T13:02:01.797Z,49.725342
2022-08-26T13:03:11.483Z,50.317383
2022-08-26T13:04:21.155Z,49.920654
2022-08-26T13:05:30.838Z,49.414062
2022-08-26T13:06:40.517Z,48.706055
2022-08-26T13:07:49.245Z,49.707031
2022-08-26T13:08:58.933Z,50.78125
2022-08-26T13:10:06.588Z,49.21875
2022-08-26T13:11:14.280Z,49.804688
2022-08-26T13:12:23.939Z,50.048828
2022-08-26T13:13:32.740Z,50.341797